Time;durP1;ratioP1;P1;durP2;ratioP2;P2;SDS_P1;SDS_P2;PMS_P1;PMS_P2;Temp;Humidity;BMP_temperature;BMP_pressure;BME280_temperature;BME280_humidity;BME280_pressure;Samples;Min_cycle;Max_cycle;Signal;HPM_P1;HPM_P2
2023/03/09 00:01:35;;;;;;;3.47;3.10;;;10.50;63.20;;;10.54;47.50;94325.69;5067826;28;20498;-58
2023/03/09 00:04:02;;;;;;;3.33;2.60;;;10.50;63.20;;;10.52;47.62;94312.69;5074875;28;20446;-58
2023/03/09 00:06:29;;;;;;;7.03;2.93;;;10.40;63.10;;;10.50;47.47;94325.16;5068907;28;20489;-58
2023/03/09 00:08:57;;;;;;;3.33;2.57;;;10.40;63.10;;;10.46;47.82;94323.81;5071942;28;20458;-55
2023/03/09 00:11:25;;;;;;;2.50;2.30;;;10.40;63.70;;;10.40;47.61;94314.72;5079155;28;20465;-57
2023/03/09 00:13:52;;;;;;;3.13;2.90;;;10.40;63.40;;;10.42;47.76;94321.63;5058179;28;20541;-56
2023/03/09 00:16:22;;;;;;;4.80;2.87;;;10.40;63.80;;;10.36;47.83;94318.66;5066230;28;21068;-57
2023/03/09 00:18:51;;;;;;;4.00;2.83;;;10.30;63.80;;;10.34;47.79;94310.06;5072438;28;20451;-55
2023/03/09 00:21:34;;;;;;;6.10;3.47;;;10.30;63.80;;;10.31;48.03;94305.09;5066123;28;20502;-57
2023/03/09 00:24:02;;;;;;;3.33;2.97;;;10.30;64.30;;;10.27;47.97;94305.53;5067801;28;20985;-56
2023/03/09 00:26:29;;;;;;;6.20;3.40;;;10.20;64.40;;;10.25;48.00;94302.25;5070447;28;21113;-56
2023/03/09 00:28:57;;;;;;;5.93;3.60;;;10.20;64.50;;;10.23;48.57;94299.78;5068353;28;21008;-57
2023/03/09 00:31:25;;;;;;;5.50;3.67;;;10.20;64.50;;;10.15;48.73;94310.22;5061321;28;20497;-56
2023/03/09 00:33:52;;;;;;;7.47;3.67;;;10.10;65.20;;;10.08;48.44;94309.16;5067052;28;21020;-57
2023/03/09 00:36:20;;;;;;;6.30;3.17;;;10.00;64.80;;;10.02;48.73;94306.16;5074045;28;20482;-57
2023/03/09 00:38:51;;;;;;;3.10;2.10;;;10.00;65.30;;;9.97;48.79;94307.59;5056862;28;21135;-56
2023/03/09 00:41:18;;;;;;;10.80;2.90;;;9.90;66.40;;;9.93;48.67;94295.72;5069293;28;20901;-55
2023/03/09 00:43:46;;;;;;;6.63;3.23;;;9.90;66.20;;;9.89;48.58;94289.94;5073292;28;20466;-56
2023/03/09 00:46:13;;;;;;;5.27;3.10;;;9.80;66.30;;;9.86;49.08;94275.31;5063375;28;20455;-56
2023/03/09 00:48:42;;;;;;;2.97;2.67;;;9.80;66.90;;;9.80;49.03;94285.59;5059503;28;20463;-57
2023/03/09 00:51:10;;;;;;;5.53;2.93;;;9.80;67.50;;;9.75;49.04;94282.59;5068678;28;21242;-56
2023/03/09 00:53:38;;;;;;;4.20;3.03;;;9.70;67.00;;;9.73;48.98;94274.88;5069531;28;20455;-56
2023/03/09 00:56:08;;;;;;;5.53;2.60;;;9.70;67.20;;;9.72;49.40;94267.13;5060612;28;20577;-56
2023/03/09 00:58:35;;;;;;;2.83;2.53;;;9.60;67.30;;;9.72;49.13;94281.09;5078916;28;21295;-56
2023/03/09 01:01:07;;;;;;;4.03;2.97;;;9.60;67.40;;;9.72;49.33;94282.91;5074856;28;20477;-56
2023/03/09 01:03:34;;;;;;;10.63;3.27;;;9.70;67.80;;;9.73;49.01;94287.16;5067261;28;20474;-56
2023/03/09 01:06:03;;;;;;;3.50;2.80;;;9.70;67.70;;;9.76;49.52;94281.59;5076815;28;20469;-55
2023/03/09 01:08:31;;;;;;;3.13;2.13;;;9.70;67.90;;;9.79;49.25;94283.94;5070729;28;20523;-57
2023/03/09 01:10:58;;;;;;;4.90;3.23;;;9.70;67.70;;;9.80;49.00;94281.16;5069163;28;20447;-56
2023/03/09 01:13:25;;;;;;;3.27;2.90;;;9.70;67.90;;;9.82;49.14;94281.00;5065387;28;20958;-55
2023/03/09 01:15:52;;;;;;;5.90;3.60;;;9.70;67.60;;;9.81;49.11;94287.25;5071787;28;20453;-56
2023/03/09 01:18:20;;;;;;;6.53;3.20;;;9.70;67.60;;;9.77;49.42;94263.06;5068527;28;20567;-57
2023/03/09 01:20:47;;;;;;;3.90;2.70;;;9.70;67.90;;;9.75;48.86;94257.16;5064914;28;20458;-56
2023/03/09 01:23:16;;;;;;;2.57;2.37;;;9.70;67.90;;;9.74;49.33;94246.78;5078731;28;20474;-56
2023/03/09 01:25:43;;;;;;;9.47;2.30;;;9.70;68.40;;;9.72;49.29;94252.19;5068530;28;21294;-55
2023/03/09 01:28:10;;;;;;;5.70;3.30;;;9.60;67.90;;;9.71;49.37;94244.47;5061680;28;20482;-56
2023/03/09 01:30:38;;;;;;;5.83;3.70;;;9.70;68.50;;;9.72;49.32;94251.38;5070925;28;20515;-56
2023/03/09 01:33:05;;;;;;;5.47;3.30;;;9.70;68.50;;;9.70;49.54;94248.91;5068309;28;20477;-56
2023/03/09 01:35:32;;;;;;;3.67;3.00;;;9.60;68.40;;;9.70;49.15;94254.16;5057498;28;20456;-57
2023/03/09 01:38:00;;;;;;;4.50;2.63;;;9.70;68.60;;;9.66;50.01;94248.38;5068718;28;20470;-57
2023/03/09 01:40:28;;;;;;;6.40;3.30;;;9.60;68.90;;;9.62;49.40;94247.03;5066139;28;20442;-58
2023/03/09 01:42:56;;;;;;;5.93;2.53;;;9.60;68.70;;;9.60;49.63;94241.09;5065144;28;20505;-55
2023/03/09 01:46:16;;;;;;;5.93;3.47;;;9.60;69.00;;;9.58;50.02;94229.91;5059283;28;20535;-56
2023/03/09 01:48:43;;;;;;;5.70;3.10;;;9.50;69.20;;;9.55;49.91;94224.97;5058520;28;20455;-57
2023/03/09 01:51:10;;;;;;;5.57;3.37;;;9.50;69.30;;;9.54;49.93;94228.56;5065805;28;20953;-55
2023/03/09 01:53:38;;;;;;;4.87;2.70;;;9.50;69.20;;;9.50;50.00;94224.59;5074570;28;20442;-57
2023/03/09 01:56:07;;;;;;;3.60;3.03;;;9.50;69.30;;;9.47;50.07;94222.28;5071667;28;20472;-55
2023/03/09 01:58:34;;;;;;;5.40;2.57;;;9.40;69.70;;;9.44;50.06;94238.31;5071925;28;20457;-57
2023/03/09 02:01:01;;;;;;;3.87;3.13;;;9.40;69.70;;;9.41;50.63;94238.59;5069973;28;20443;-57
2023/03/09 02:03:33;;;;;;;5.80;3.03;;;9.40;70.20;;;9.38;50.34;94239.72;5072474;28;20462;-57
2023/03/09 02:06:02;;;;;;;7.40;2.80;;;9.30;70.00;;;9.36;51.14;94236.44;5074754;28;20445;-56
2023/03/09 02:08:30;;;;;;;4.57;2.93;;;9.30;71.10;;;9.35;50.47;94247.06;5069592;28;20451;-56
2023/03/09 02:10:58;;;;;;;61.00;31.17;;;9.30;71.40;;;9.31;50.55;94243.91;5082210;28;20534;-57
2023/03/09 02:13:29;;;;;;;24.17;11.90;;;9.30;70.50;;;9.30;50.57;94252.75;5071768;28;20451;-58
2023/03/09 02:15:57;;;;;;;41.57;18.70;;;9.30;70.90;;;9.29;50.82;94249.28;5070225;28;20485;-57
2023/03/09 02:18:24;;;;;;;34.97;11.83;;;9.20;70.90;;;9.28;50.41;94245.03;5079683;28;20457;-55
2023/03/09 02:20:58;;;;;;;19.77;9.17;;;9.30;71.20;;;9.28;50.48;94245.03;5076630;28;20447;-55
2023/03/09 02:23:31;;;;;;;13.00;6.90;;;9.20;71.20;;;9.28;51.03;94242.41;5070715;28;20478;-56
2023/03/09 02:26:02;;;;;;;11.97;4.53;;;9.20;71.40;;;9.26;50.83;94231.22;5078491;28;20455;-57
2023/03/09 02:28:31;;;;;;;6.67;3.60;;;9.20;71.60;;;9.27;50.82;94243.38;5079478;28;20446;-60
2023/03/09 02:30:58;;;;;;;5.13;3.37;;;9.20;71.50;;;9.27;51.21;94238.13;5073987;28;20452;-57
2023/03/09 02:33:27;;;;;;;3.13;2.83;;;9.20;72.20;;;9.26;51.12;94252.22;5075388;28;20468;-58
2023/03/09 02:35:54;;;;;;;5.07;2.67;;;9.20;71.80;;;9.26;51.39;94262.72;5075507;28;20461;-56
2023/03/09 02:38:21;;;;;;;3.30;3.00;;;9.20;72.60;;;9.22;50.54;94253.50;5073478;28;20473;-56
2023/03/09 02:40:49;;;;;;;2.83;2.53;;;9.20;71.70;;;9.19;51.26;94256.41;5072331;28;20866;-57
2023/03/09 02:43:16;;;;;;;8.93;2.83;;;9.20;72.50;;;9.17;50.87;94262.78;5081183;28;20524;-56
2023/03/09 02:45:45;;;;;;;6.03;2.90;;;9.10;72.30;;;9.15;50.89;94257.66;5075196;28;20450;-56
2023/03/09 02:48:12;;;;;;;5.77;2.90;;;9.10;72.50;;;9.17;51.23;94258.38;5058328;28;20482;-56
2023/03/09 02:50:39;;;;;;;9.33;3.63;;;9.10;72.70;;;9.18;51.23;94260.00;5083869;28;20446;-55
2023/03/09 02:53:07;;;;;;;4.40;2.87;;;9.10;72.70;;;9.19;51.34;94272.16;5074818;28;20905;-58
2023/03/09 02:55:34;;;;;;;6.40;3.63;;;9.10;73.00;;;9.21;51.06;94264.13;5068590;28;20516;-55
2023/03/09 02:58:01;;;;;;;8.60;3.97;;;9.10;72.90;;;9.21;51.30;94253.66;5074373;28;20462;-56
2023/03/09 03:00:28;;;;;;;23.80;3.80;;;9.20;73.20;;;9.22;51.02;94250.88;5069896;28;20462;-59
2023/03/09 03:02:57;;;;;;;2.60;2.40;;;9.20;73.20;;;9.24;51.39;94255.97;5059441;28;20510;-56
2023/03/09 03:05:24;;;;;;;4.47;3.10;;;9.20;73.50;;;9.24;51.53;94259.41;5069572;28;20847;-56
2023/03/09 03:07:52;;;;;;;5.50;2.93;;;9.20;73.70;;;9.23;51.82;94255.13;5068126;28;20520;-56
2023/03/09 03:10:19;;;;;;;3.83;2.70;;;9.20;73.80;;;9.22;51.05;94266.63;5062550;28;20463;-56
2023/03/09 03:12:46;;;;;;;11.17;3.70;;;9.20;73.50;;;9.25;51.15;94275.97;5062550;28;20462;-56
2023/03/09 03:15:14;;;;;;;3.57;3.00;;;9.20;73.50;;;9.25;51.60;94271.56;5072315;28;20529;-56
2023/03/09 03:17:41;;;;;;;5.43;3.37;;;9.20;74.00;;;9.26;51.50;94267.97;5056889;28;21033;-57
2023/03/09 03:20:14;;;;;;;16.33;3.17;;;9.20;73.80;;;9.25;51.35;94274.19;5058481;28;20455;-57
2023/03/09 03:22:41;;;;;;;7.97;3.63;;;9.20;73.50;;;9.26;51.73;94273.22;5067357;28;20875;-55
2023/03/09 03:25:09;;;;;;;5.77;3.07;;;9.20;73.90;;;9.24;51.12;94267.28;5071222;28;20493;-57
2023/03/09 03:27:37;;;;;;;3.40;2.60;;;9.20;74.00;;;9.23;51.32;94270.88;5054439;28;20471;-57
2023/03/09 03:30:05;;;;;;;3.30;3.00;;;9.20;74.00;;;9.23;51.67;94278.75;5073431;28;20450;-55
2023/03/09 03:32:32;;;;;;;7.60;3.30;;;9.20;74.00;;;9.23;51.54;94270.88;5068366;28;20486;-56
2023/03/09 03:34:59;;;;;;;8.20;3.13;;;9.20;74.30;;;9.22;51.41;94282.38;5069043;28;20918;-57
2023/03/09 03:37:29;;;;;;;3.87;3.13;;;9.20;74.20;;;9.19;51.60;94290.53;5067536;28;20486;-57
2023/03/09 03:39:58;;;;;;;6.00;3.63;;;9.20;74.50;;;9.17;51.77;94281.97;5063928;28;20482;-57
2023/03/09 03:42:25;;;;;;;10.90;3.07;;;9.10;74.30;;;9.14;51.44;94284.91;5066889;28;20498;-56
2023/03/09 03:44:52;;;;;;;9.40;3.63;;;9.10;74.70;;;9.10;51.39;94273.03;5059380;28;20447;-58
2023/03/09 03:47:20;;;;;;;14.10;3.40;;;9.00;74.60;;;9.07;52.10;94283.81;5078243;28;20478;-58
2023/03/09 03:49:47;;;;;;;5.70;3.53;;;9.10;75.60;;;9.03;51.54;94280.66;5062426;28;20493;-57
2023/03/09 03:52:14;;;;;;;8.70;3.30;;;9.00;75.10;;;9.02;52.12;94288.69;5060960;28;20483;-57
2023/03/09 03:54:43;;;;;;;3.57;3.03;;;9.00;75.50;;;8.96;51.93;94274.34;5074402;28;20451;-57
2023/03/09 03:57:10;;;;;;;5.27;3.17;;;9.00;75.70;;;8.92;52.05;94276.44;5066191;28;20475;-55
2023/03/09 03:59:37;;;;;;;6.33;4.00;;;8.90;75.60;;;8.90;52.28;94264.44;5067912;28;20474;-58
2023/03/09 04:02:05;;;;;;;5.10;2.77;;;8.90;75.70;;;8.89;52.32;94276.72;5070249;28;20515;-57
2023/03/09 04:04:32;;;;;;;9.57;4.00;;;8.90;76.60;;;8.88;52.74;94280.31;5072141;28;20458;-56
2023/03/09 04:06:59;;;;;;;4.90;3.77;;;8.80;76.50;;;8.86;52.59;94277.00;5064129;28;20478;-58
2023/03/09 04:09:26;;;;;;;24.33;13.07;;;8.90;77.00;;;8.86;52.27;94286.66;5067234;28;20454;-56
2023/03/09 04:11:55;;;;;;;27.00;14.17;;;8.80;76.50;;;8.80;52.80;94274.97;5075557;28;20466;-56
2023/03/09 04:14:22;;;;;;;25.60;12.90;;;8.80;76.70;;;8.78;52.72;94274.25;5068358;28;20467;-57
2023/03/09 04:16:49;;;;;;;16.33;7.70;;;8.70;77.00;;;8.74;52.67;94278.16;5054779;28;20526;-56
2023/03/09 04:19:17;;;;;;;14.20;8.00;;;8.70;76.80;;;8.69;53.15;94269.88;5072753;28;20873;-57
2023/03/09 04:21:44;;;;;;;18.47;8.17;;;8.70;78.10;;;8.64;52.81;94277.34;5071121;28;20483;-57
2023/03/09 04:24:11;;;;;;;9.97;6.77;;;8.60;77.70;;;8.61;53.21;94273.22;5061400;28;20977;-57
2023/03/09 04:26:38;;;;;;;10.50;6.70;;;8.60;78.30;;;8.61;53.19;94258.31;5073485;28;20477;-56
2023/03/09 04:29:07;;;;;;;8.10;6.07;;;8.60;78.60;;;8.62;53.22;94259.16;5074165;28;20857;-57
2023/03/09 04:31:35;;;;;;;19.80;8.53;;;8.60;79.00;;;8.63;53.42;94265.19;5068676;28;20951;-56
2023/03/09 04:34:02;;;;;;;17.53;6.97;;;8.60;79.00;;;8.64;53.49;94254.56;5074216;28;20462;-57
2023/03/09 04:36:30;;;;;;;11.60;6.77;;;8.60;79.50;;;8.65;53.55;94251.00;5067134;28;20870;-57
2023/03/09 04:38:57;;;;;;;12.90;6.97;;;8.60;79.50;;;8.66;53.15;94255.28;5062024;28;20571;-56
2023/03/09 04:41:25;;;;;;;12.60;6.00;;;8.60;79.60;;;8.65;53.07;94244.94;5071561;28;20505;-56
2023/03/09 04:43:52;;;;;;;27.77;13.50;;;8.70;79.60;;;8.68;53.29;94248.09;5072713;28;20494;-60
2023/03/09 04:46:21;;;;;;;26.37;8.03;;;8.60;79.50;;;8.69;53.61;94239.25;5067227;28;20485;-56
2023/03/09 04:48:48;;;;;;;11.93;6.47;;;8.60;79.70;;;8.70;53.61;94240.88;5064581;28;21020;-56
2023/03/09 04:51:15;;;;;;;14.50;7.07;;;8.70;80.10;;;8.71;53.57;94252.22;5074610;28;20450;-56
2023/03/09 04:53:43;;;;;;;18.40;7.07;;;8.70;80.40;;;8.69;53.20;94244.50;5057570;28;20448;-58
2023/03/09 04:56:10;;;;;;;29.00;6.90;;;8.70;80.30;;;8.71;53.73;94253.03;5063968;28;21028;-58
2023/03/09 04:58:37;;;;;;;11.23;6.30;;;8.70;81.10;;;8.71;53.79;94252.22;5074963;28;20462;-57
2023/03/09 05:01:05;;;;;;;10.50;5.80;;;8.70;81.30;;;8.72;53.33;94243.38;5071918;28;20533;-55
2023/03/09 05:03:34;;;;;;;9.93;5.30;;;8.70;81.60;;;8.71;53.77;94257.47;5063265;28;21057;-59
2023/03/09 05:06:01;;;;;;;13.43;6.37;;;8.70;81.00;;;8.69;54.13;94249.75;5071248;28;20813;-57
2023/03/09 05:08:29;;;;;;;13.60;5.90;;;8.70;81.30;;;8.69;54.08;94254.16;5070818;28;20455;-56
2023/03/09 05:10:56;;;;;;;15.20;7.30;;;8.60;81.60;;;8.70;53.86;94246.13;5067544;28;20458;-58
2023/03/09 05:13:23;;;;;;;10.90;6.00;;;8.70;81.70;;;8.72;54.02;94251.22;5064646;28;20925;-56
2023/03/09 05:15:50;;;;;;;10.20;5.30;;;8.70;81.80;;;8.74;54.12;94251.94;5066405;28;20508;-56
2023/03/09 05:18:17;;;;;;;10.77;5.30;;;8.70;81.70;;;8.76;54.25;94245.56;5067474;28;20478;-56
2023/03/09 05:20:46;;;;;;;7.63;4.40;;;8.80;82.40;;;8.82;53.83;94243.34;5057037;28;21280;-54
2023/03/09 05:23:13;;;;;;;9.23;4.30;;;8.80;81.90;;;8.86;54.19;94245.53;5070000;28;20978;-59
2023/03/09 05:25:41;;;;;;;19.43;5.07;;;8.80;81.80;;;8.90;54.26;94240.81;5066441;28;20463;-59
2023/03/09 05:28:08;;;;;;;7.77;5.67;;;8.80;81.80;;;8.92;53.88;94238.88;5060262;28;20700;-56
2023/03/09 05:30:35;;;;;;;10.80;4.20;;;8.90;82.70;;;8.94;53.93;94248.25;5068649;28;20514;-56
2023/03/09 05:33:02;;;;;;;9.43;5.67;;;8.90;82.00;;;8.95;53.83;94255.16;5067654;28;20525;-55
2023/03/09 05:35:30;;;;;;;5.77;4.53;;;8.90;82.50;;;8.96;53.60;94262.03;5052809;28;20440;-56
2023/03/09 05:37:59;;;;;;;13.60;6.00;;;8.90;81.90;;;8.99;53.81;94262.75;5067307;28;20473;-57
2023/03/09 05:40:26;;;;;;;7.50;5.63;;;8.90;82.00;;;9.00;53.66;94269.63;5064408;28;20536;-57
2023/03/09 05:42:53;;;;;;;15.77;6.80;;;9.00;82.00;;;9.02;53.82;94272.94;5069303;28;20506;-57
2023/03/09 05:45:20;;;;;;;13.77;8.17;;;9.00;82.00;;;9.04;53.85;94269.19;5060693;28;20469;-60
2023/03/09 05:47:48;;;;;;;12.37;7.00;;;9.00;82.00;;;9.08;53.53;94261.88;5073529;28;20478;-57
2023/03/09 05:50:16;;;;;;;14.67;6.37;;;9.00;82.00;;;9.10;52.70;94273.84;5061308;28;20451;-57
2023/03/09 05:52:43;;;;;;;14.50;5.70;;;9.00;81.30;;;9.14;53.13;94269.16;5071504;28;20478;-59
2023/03/09 05:55:12;;;;;;;15.00;7.00;;;9.10;81.30;;;9.21;53.23;94274.63;5081695;28;20454;-58
2023/03/09 05:57:39;;;;;;;19.60;6.60;;;9.10;82.10;;;9.23;53.74;94278.75;5067444;28;20502;-57
2023/03/09 06:00:09;;;;;;;11.60;6.40;;;9.20;82.20;;;9.27;53.36;94289.78;5069044;28;20447;-55
2023/03/09 06:02:37;;;;;;;27.53;7.10;;;9.20;81.60;;;9.30;53.45;94287.69;5082849;28;20536;-58
2023/03/09 06:05:04;;;;;;;20.40;7.40;;;9.20;81.90;;;9.39;53.38;94290.41;5074162;28;20467;-59
2023/03/09 06:07:32;;;;;;;11.77;6.70;;;9.30;81.70;;;9.48;52.74;94287.75;5073381;28;20520;-57
2023/03/09 06:09:59;;;;;;;21.07;8.20;;;9.40;81.40;;;9.61;52.58;94286.56;5075136;28;20463;-56
2023/03/09 06:12:28;;;;;;;18.30;7.20;;;9.50;81.00;;;9.76;52.69;94299.97;5081504;28;20471;-57
2023/03/09 06:14:55;;;;;;;21.73;9.47;;;9.60;80.90;;;9.90;52.22;94290.75;5071826;28;20454;-58
2023/03/09 06:17:22;;;;;;;15.70;8.00;;;9.80;80.80;;;10.07;52.19;94291.72;5075370;28;20493;-57
2023/03/09 06:19:49;;;;;;;42.67;7.00;;;9.90;79.90;;;10.21;51.63;94275.47;5082657;28;20450;-59
2023/03/09 06:22:17;;;;;;;21.63;7.67;;;10.00;78.30;;;10.37;51.59;94277.41;5071657;28;20479;-57
2023/03/09 06:24:44;;;;;;;17.43;7.90;;;10.20;78.10;;;10.48;51.16;94273.69;5071247;28;20454;-58
2023/03/09 06:27:11;;;;;;;16.20;8.87;;;10.30;77.20;;;10.62;50.96;94282.84;5082030;28;20478;-57
2023/03/09 06:29:40;;;;;;;17.93;7.37;;;10.50;76.60;;;10.73;50.81;94278.13;5077976;28;20950;-57
2023/03/09 06:32:07;;;;;;;25.20;8.13;;;10.60;76.20;;;10.84;50.39;94274.41;5067745;28;20475;-55
2023/03/09 06:34:35;;;;;;;20.77;7.10;;;10.70;76.20;;;10.95;50.35;94281.19;5079618;28;20931;-57
2023/03/09 06:37:02;;;;;;;21.03;7.17;;;10.80;76.30;;;11.13;50.13;94286.41;5077566;28;20695;-57
2023/03/09 06:39:30;;;;;;;25.83;7.03;;;10.90;75.70;;;11.29;49.99;94283.84;5073232;28;20577;-55
2023/03/09 06:41:57;;;;;;;19.63;7.67;;;11.10;75.20;;;11.40;49.52;94287.16;5076445;28;20497;-56
2023/03/09 06:44:24;;;;;;;16.07;7.33;;;11.20;74.30;;;11.48;49.56;94280.13;5080294;28;20490;-56
2023/03/09 06:46:53;;;;;;;14.23;7.77;;;11.30;74.00;;;11.57;49.07;94269.59;5073727;28;20479;-56
2023/03/09 06:49:20;;;;;;;15.73;7.07;;;11.40;73.70;;;11.68;49.16;94271.94;5074853;28;20553;-56
2023/03/09 06:51:47;;;;;;;19.40;6.70;;;11.50;73.30;;;11.77;48.99;94270.97;5081522;28;20584;-57
2023/03/09 06:54:15;;;;;;;17.80;8.67;;;11.60;73.00;;;11.86;49.01;94269.16;5073306;28;20454;-58
2023/03/09 06:56:42;;;;;;;32.40;11.17;;;11.70;72.80;;;11.93;48.44;94261.44;5068542;28;20486;-56
2023/03/09 06:59:10;;;;;;;20.97;10.70;;;11.80;72.30;;;11.97;48.14;94260.16;5079767;28;20459;-57
2023/03/09 07:01:37;;;;;;;22.20;9.70;;;11.80;71.30;;;12.01;48.07;94256.22;5075659;28;20832;-58
2023/03/09 07:04:07;;;;;;;16.40;9.40;;;11.80;71.10;;;12.07;48.01;94260.81;5071444;28;20548;-55
2023/03/09 07:06:34;;;;;;;17.73;9.03;;;11.90;71.20;;;12.20;48.06;94260.31;5076593;28;20502;-57
2023/03/09 07:09:01;;;;;;;16.80;10.20;;;12.00;70.90;;;12.37;47.76;94261.16;5079052;28;20558;-58
2023/03/09 07:11:28;;;;;;;17.93;10.13;;;12.10;70.70;;;12.54;48.13;94264.59;5071580;28;20879;-56
2023/03/09 07:13:55;;;;;;;20.37;9.90;;;12.30;71.30;;;12.69;47.68;94260.28;5078299;28;20447;-58
2023/03/09 07:16:24;;;;;;;22.77;9.60;;;12.50;70.70;;;12.83;47.22;94265.88;5076734;28;20486;-57
2023/03/09 07:18:52;;;;;;;20.03;10.47;;;12.60;69.80;;;12.98;46.80;94272.09;5072570;28;20486;-56
2023/03/09 07:21:20;;;;;;;15.83;8.97;;;12.80;68.80;;;13.20;46.80;94267.06;5071544;28;20467;-56
2023/03/09 07:23:48;;;;;;;13.67;7.93;;;13.00;69.20;;;13.49;46.74;94269.13;5078917;28;20489;-58
2023/03/09 07:26:15;;;;;;;13.73;7.67;;;13.20;68.40;;;13.78;46.26;94259.72;5074812;28;20445;-58
2023/03/09 07:28:42;;;;;;;15.37;6.70;;;13.50;68.60;;;14.04;46.13;94263.88;5070410;28;20454;-57
2023/03/09 07:31:10;;;;;;;10.60;6.53;;;13.80;68.80;;;14.27;45.43;94269.97;5076964;28;20462;-56
2023/03/09 07:33:37;;;;;;;16.93;8.00;;;14.00;66.40;;;14.50;45.48;94271.75;5076649;28;20450;-56
2023/03/09 07:36:05;;;;;;;23.70;8.20;;;14.30;66.40;;;14.72;44.50;94271.91;5066294;28;20450;-58
2023/03/09 07:38:34;;;;;;;17.00;6.77;;;14.50;64.70;;;14.99;44.98;94267.84;5076964;28;20469;-57
2023/03/09 07:41:02;;;;;;;22.93;7.20;;;14.70;65.70;;;15.30;44.51;94264.19;5075219;28;20446;-56
2023/03/09 07:43:29;;;;;;;13.20;7.00;;;15.00;64.70;;;15.59;43.49;94260.69;5059837;28;20491;-56
2023/03/09 07:45:56;;;;;;;13.30;6.03;;;15.40;62.70;;;15.88;44.04;94246.56;5074274;28;20519;-57
2023/03/09 07:48:24;;;;;;;10.93;7.00;;;15.70;64.10;;;16.25;43.61;94257.13;5072195;28;20989;-59
2023/03/09 07:50:59;;;;;;;13.10;6.60;;;16.00;63.60;;;16.71;43.10;94261.19;5069711;28;20457;-57
2023/03/09 07:53:26;;;;;;;15.50;6.80;;;16.50;63.00;;;17.11;42.59;94257.00;5065065;28;20435;-56
2023/03/09 07:55:57;;;;;;;13.33;5.70;;;16.90;62.20;;;17.41;42.15;94259.41;5079472;28;20468;-57
2023/03/09 07:58:24;;;;;;;10.27;6.00;;;17.20;60.00;;;17.62;41.57;94241.72;5071303;28;20462;-58
2023/03/09 08:00:51;;;;;;;20.33;6.57;;;17.50;59.70;;;17.84;40.70;94245.06;5068110;28;20454;-57
2023/03/09 08:03:19;;;;;;;7.13;5.30;;;17.70;58.30;;;18.05;41.24;94247.63;5078449;28;21323;-56
2023/03/09 08:05:47;;;;;;;12.20;6.33;;;17.90;58.60;;;18.25;40.36;94250.31;5072796;28;20459;-57
2023/03/09 08:08:14;;;;;;;19.33;6.00;;;18.20;58.40;;;18.53;39.84;94246.66;5069383;28;20561;-57
2023/03/09 08:10:48;;;;;;;17.70;6.73;;;18.30;57.20;;;18.77;39.69;94252.38;5077555;28;20597;-56
2023/03/09 08:13:16;;;;;;;17.13;5.70;;;18.60;57.00;;;18.97;39.12;94255.06;5076869;28;20498;-59
2023/03/09 08:15:43;;;;;;;6.10;5.03;;;18.80;56.50;;;19.17;38.89;94241.72;5066397;28;20462;-58
2023/03/09 08:18:11;;;;;;;5.53;3.03;;;19.00;56.00;;;19.28;38.11;94243.72;5074060;28;20469;-57
2023/03/09 08:20:38;;;;;;;11.73;3.73;;;19.10;55.20;;;19.25;37.06;94246.00;5076035;28;20459;-58
2023/03/09 08:23:05;;;;;;;3.17;2.83;;;19.10;53.40;;;19.26;38.05;94240.44;5072458;28;20466;-57
2023/03/09 08:25:33;;;;;;;13.57;2.30;;;19.10;53.80;;;19.33;37.85;94238.59;5068734;28;20454;-55
2023/03/09 08:28:00;;;;;;;4.93;1.90;;;19.10;53.50;;;19.42;37.58;94243.69;5078578;28;21205;-56
2023/03/09 08:30:29;;;;;;;5.73;3.77;;;19.20;53.70;;;19.60;37.38;94245.69;5074109;28;20450;-58
2023/03/09 08:32:57;;;;;;;13.47;4.40;;;19.30;53.60;;;19.72;36.18;94236.00;5068598;28;20471;-56
2023/03/09 08:35:28;;;;;;;7.03;3.30;;;19.40;52.50;;;19.77;36.58;94228.19;5079329;28;20455;-56
2023/03/09 08:37:56;;;;;;;5.90;2.43;;;19.50;51.90;;;19.83;35.84;94227.34;5074851;28;20548;-58
2023/03/09 08:40:23;;;;;;;6.07;1.80;;;19.50;52.00;;;19.81;36.52;94228.59;5069419;28;20447;-58
2023/03/09 08:42:50;;;;;;;4.97;2.00;;;19.60;51.90;;;19.83;35.63;94210.50;5080080;28;20551;-56
2023/03/09 08:45:18;;;;;;;6.47;2.50;;;19.60;51.40;;;19.92;36.36;94224.41;5076687;28;20498;-56
2023/03/09 08:47:47;;;;;;;8.13;3.40;;;19.60;51.80;;;20.09;35.75;94216.72;5066109;28;21010;-57
2023/03/09 08:50:14;;;;;;;10.00;3.60;;;19.70;51.80;;;20.21;35.44;94209.66;5075916;28;20546;-57
2023/03/09 08:52:41;;;;;;;5.83;3.27;;;19.90;51.20;;;20.37;35.21;94211.81;5078125;28;20471;-57
2023/03/09 08:55:10;;;;;;;10.20;5.70;;;20.00;51.30;;;20.59;35.35;94217.59;5070913;28;20461;-58
2023/03/09 08:57:37;;;;;;;14.23;4.30;;;20.20;51.10;;;20.86;34.95;94216.59;5069090;28;21019;-58
2023/03/09 09:00:08;;;;;;;11.33;4.00;;;20.40;50.80;;;20.93;34.71;94210.16;5073488;28;20451;-57
2023/03/09 09:02:35;;;;;;;3.93;3.53;;;20.50;50.20;;;20.73;34.95;94214.88;5060769;28;20536;-57
2023/03/09 09:05:05;;;;;;;4.73;3.80;;;20.50;49.90;;;20.48;34.52;94212.13;5058550;28;20577;-56
2023/03/09 09:07:32;;;;;;;5.50;3.53;;;20.20;49.30;;;20.19;35.22;94203.75;5068048;28;20558;-56
2023/03/09 09:09:59;;;;;;;8.90;4.37;;;20.00;49.80;;;19.93;35.11;94196.72;5068055;28;20447;-57
2023/03/09 09:12:27;;;;;;;2.87;2.63;;;19.70;49.70;;;19.72;35.66;94187.97;5056535;28;20633;-57
2023/03/09 09:14:55;;;;;;;5.70;3.73;;;19.50;50.30;;;19.54;35.04;94188.66;5075027;28;20461;-57
2023/03/09 09:17:22;;;;;;;11.90;2.10;;;19.30;50.60;;;19.29;35.71;94188.56;5063748;28;20478;-59
2023/03/09 09:19:51;;;;;;;4.60;2.40;;;19.10;50.40;;;19.06;35.72;94183.72;5063858;28;20455;-55
2023/03/09 09:22:20;;;;;;;8.07;3.00;;;18.90;50.70;;;19.05;35.96;94176.72;5074241;28;20476;-57
2023/03/09 09:24:47;;;;;;;4.63;1.87;;;18.80;51.10;;;19.21;36.63;94176.28;5070859;28;21020;-56
2023/03/09 09:27:14;;;;;;;4.50;2.17;;;18.80;51.50;;;19.27;35.93;94185.28;5056438;28;21021;-57
2023/03/09 09:29:42;;;;;;;5.50;3.77;;;18.90;51.10;;;19.23;35.56;94168.88;5069048;28;20453;-57
2023/03/09 09:32:10;;;;;;;8.93;3.50;;;18.90;50.90;;;19.23;35.43;94163.56;5068442;28;20994;-57
2023/03/09 09:34:37;;;;;;;2.70;1.97;;;18.90;50.90;;;19.27;35.83;94170.09;5067808;28;20469;-56
2023/03/09 09:37:05;;;;;;;5.73;2.80;;;18.90;51.00;;;19.35;36.38;94156.53;5052437;28;20494;-58
2023/03/09 09:39:34;;;;;;;8.63;2.87;;;19.00;51.20;;;19.60;35.91;94163.81;5066032;28;20454;-57
2023/03/09 09:42:04;;;;;;;8.10;3.67;;;19.20;51.30;;;20.03;35.93;94168.50;5065426;28;20514;-58
2023/03/09 09:44:33;;;;;;;4.00;2.80;;;19.50;51.50;;;20.47;35.46;94163.25;5049523;28;21061;-56
2023/03/09 09:47:03;;;;;;;5.73;1.50;;;19.90;51.40;;;21.00;34.96;94169.16;5070119;28;20991;-57
2023/03/09 09:49:32;;;;;;;2.13;1.10;;;20.50;51.30;;;21.46;33.88;94165.94;5066150;28;20939;-56
2023/03/09 09:52:25;;;;;;;1.90;1.17;;;20.90;49.80;;;21.72;33.92;94157.84;5064604;28;20518;-57
2023/03/09 09:54:56;;;;;;;2.17;1.30;;;21.30;49.50;;;22.01;33.93;94156.19;5075124;28;20930;-56
2023/03/09 09:57:24;;;;;;;5.20;1.23;;;21.50;49.10;;;22.36;33.58;94148.25;5075469;28;20500;-57
2023/03/09 09:59:58;;;;;;;5.40;1.17;;;21.90;48.80;;;22.67;32.94;94158.91;5068498;28;20450;-57
2023/03/09 10:02:53;;;;;;;14.93;1.77;;;22.20;48.70;;;22.90;31.71;94147.38;5072176;28;20478;-57
2023/03/09 10:05:25;;;;;;;3.80;0.93;;;22.40;47.90;;;23.04;31.90;94127.28;5071027;28;20586;-57
2023/03/09 10:07:52;;;;;;;2.53;1.10;;;22.60;47.20;;;23.32;32.83;94133.00;5069036;28;20475;-58
2023/03/09 10:10:23;;;;;;;2.20;1.10;;;22.80;47.30;;;23.61;32.44;94131.97;5067310;28;20891;-57
2023/03/09 10:12:50;;;;;;;1.77;1.00;;;23.10;47.50;;;23.72;31.38;94119.53;5074553;28;20486;-56
2023/03/09 10:15:23;;;;;;;14.17;1.50;;;23.30;46.30;;;23.66;31.85;94123.19;5070158;28;20526;-57
2023/03/09 10:17:53;;;;;;;3.43;1.37;;;23.30;46.30;;;23.53;31.90;94110.88;5071843;28;20887;-57
2023/03/09 10:20:24;;;;;;;1.30;1.10;;;23.20;46.10;;;23.34;30.53;94110.22;5067913;28;20469;-57
2023/03/09 10:22:53;;;;;;;1.53;1.27;;;23.10;45.40;;;23.10;31.49;94106.78;5069851;28;20487;-57
2023/03/09 10:25:22;;;;;;;2.40;1.60;;;22.90;46.00;;;22.99;31.76;94105.72;5069196;28;20501;-56
2023/03/09 10:27:55;;;;;;;2.60;1.33;;;22.70;46.20;;;22.96;31.48;94097.31;5077972;28;20484;-57